Time;durP1;ratioP1;P1;durP2;ratioP2;P2;SDS_P1;SDS_P2;PMS_P1;PMS_P2;Temp;Humidity;BMP_temperature;BMP_pressure;BME280_temperature;BME280_humidity;BME280_pressure;Samples;Min_cycle;Max_cycle;Signal;HPM_P1;HPM_P2
2024/03/30 00:00:54;;;;;;;14.03;9.70;;;11.00;99.90;;;;;;5046897;28;20520;-71
2024/03/30 00:03:21;;;;;;;10.20;8.77;;;10.90;99.90;;;;;;5049354;28;20537;-71
2024/03/30 00:05:47;;;;;;;10.63;8.67;;;11.00;99.90;;;;;;5066373;28;20470;-69
2024/03/30 00:08:13;;;;;;;10.67;8.70;;;11.00;99.90;;;;;;5062627;28;20461;-71
2024/03/30 00:10:41;;;;;;;11.57;7.80;;;11.00;99.90;;;;;;5065077;28;20524;-70
2024/03/30 00:13:08;;;;;;;12.00;9.27;;;10.90;99.90;;;;;;5064263;28;20544;-71
2024/03/30 00:15:34;;;;;;;11.50;8.10;;;10.90;99.90;;;;;;5064576;28;20493;-73
2024/03/30 00:18:00;;;;;;;13.60;8.27;;;10.90;99.90;;;;;;5063296;28;20468;-72
2024/03/30 00:20:27;;;;;;;10.13;8.57;;;10.90;99.90;;;;;;5081802;28;20594;-70
2024/03/30 00:22:53;;;;;;;10.43;7.47;;;10.90;99.90;;;;;;5055082;28;20222;-70
2024/03/30 00:25:19;;;;;;;8.77;7.40;;;10.90;99.90;;;;;;5066978;28;20544;-70
2024/03/30 00:27:45;;;;;;;13.27;8.27;;;10.90;99.90;;;;;;5058190;28;20480;-71
2024/03/30 00:30:11;;;;;;;11.13;7.83;;;10.90;99.90;;;;;;5063639;28;20457;-70
2024/03/30 00:32:37;;;;;;;11.67;8.30;;;10.90;99.90;;;;;;5063176;28;20220;-71
2024/03/30 00:35:06;;;;;;;12.73;8.47;;;10.90;99.90;;;;;;5046910;28;20212;-71
2024/03/30 00:37:32;;;;;;;11.50;8.63;;;10.80;99.90;;;;;;5060020;28;20223;-69
2024/03/30 00:39:58;;;;;;;10.97;7.43;;;10.80;99.90;;;;;;5065880;28;20527;-71
2024/03/30 00:42:25;;;;;;;12.97;9.43;;;10.70;99.90;;;;;;5047579;28;20484;-70
2024/03/30 00:44:50;;;;;;;13.37;9.60;;;10.80;99.90;;;;;;5063728;28;20453;-71
2024/03/30 00:47:16;;;;;;;12.10;8.70;;;10.70;99.90;;;;;;5066181;28;20441;-71
2024/03/30 00:49:41;;;;;;;12.10;8.57;;;10.60;99.90;;;;;;5063539;28;20238;-70
2024/03/30 00:52:07;;;;;;;11.23;8.80;;;10.70;99.90;;;;;;5046123;28;20207;-70
2024/03/30 00:54:33;;;;;;;11.43;7.80;;;10.70;99.90;;;;;;5063748;28;20227;-72
2024/03/30 00:56:59;;;;;;;11.37;8.93;;;10.60;99.90;;;;;;5062932;28;20468;-69
2024/03/30 00:59:24;;;;;;;13.67;8.83;;;10.60;99.90;;;;;;5064446;28;20284;-70
2024/03/30 01:01:50;;;;;;;9.60;7.90;;;10.60;99.90;;;;;;5061549;28;20211;-70
2024/03/30 01:04:16;;;;;;;11.67;8.30;;;10.60;99.90;;;;;;5064086;28;20331;-70
2024/03/30 01:06:43;;;;;;;12.43;8.20;;;10.60;99.90;;;;;;5047271;28;20500;-71
2024/03/30 01:09:09;;;;;;;12.00;7.73;;;10.60;99.90;;;;;;5049236;28;20219;-71
2024/03/30 01:11:36;;;;;;;13.33;8.47;;;10.60;99.90;;;;;;5063720;28;20466;-71
2024/03/30 01:14:03;;;;;;;13.23;8.53;;;10.60;99.90;;;;;;5048575;28;20535;-72
2024/03/30 01:16:29;;;;;;;11.37;8.80;;;10.60;99.90;;;;;;5058922;28;20470;-70
2024/03/30 01:18:56;;;;;;;11.57;8.40;;;10.60;99.90;;;;;;5036682;28;20526;-70
2024/03/30 01:21:21;;;;;;;13.13;8.27;;;10.60;99.90;;;;;;5060460;28;20456;-72
2024/03/30 01:23:47;;;;;;;11.90;8.20;;;10.60;99.90;;;;;;5061270;28;20458;-69
2024/03/30 01:26:15;;;;;;;12.07;8.10;;;10.50;99.90;;;;;;5063852;28;20329;-71
2024/03/30 01:28:42;;;;;;;12.40;8.47;;;10.50;99.90;;;;;;5061407;28;20688;-71
2024/03/30 01:31:11;;;;;;;10.30;7.57;;;10.50;99.90;;;;;;5060322;28;20468;-70
2024/03/30 01:33:38;;;;;;;10.90;7.77;;;10.50;99.90;;;;;;5061014;28;20524;-70
2024/03/30 01:36:03;;;;;;;10.10;7.70;;;10.50;99.90;;;;;;5046211;28;20450;-71
2024/03/30 01:38:30;;;;;;;12.13;8.33;;;10.50;99.90;;;;;;5061662;28;21034;-71
2024/03/30 01:40:55;;;;;;;12.23;8.70;;;10.50;99.90;;;;;;5063161;28;20211;-70
2024/03/30 01:43:21;;;;;;;7.87;6.50;;;10.50;99.90;;;;;;5061346;28;20480;-70
2024/03/30 01:45:47;;;;;;;8.63;7.73;;;10.50;99.90;;;;;;5059735;28;20225;-70
2024/03/30 01:48:14;;;;;;;9.73;7.57;;;10.40;99.90;;;;;;5061232;28;20223;-70
2024/03/30 01:50:43;;;;;;;8.87;7.07;;;10.40;99.90;;;;;;5062756;28;20469;-71
2024/03/30 01:53:13;;;;;;;11.33;7.47;;;10.40;99.90;;;;;;5062880;28;20472;-70
2024/03/30 01:55:40;;;;;;;10.20;7.03;;;10.40;99.90;;;;;;5067348;28;20678;-71
2024/03/30 01:58:07;;;;;;;9.23;7.03;;;10.40;99.90;;;;;;5064965;28;20488;-71
2024/03/30 02:00:33;;;;;;;9.10;6.70;;;10.30;99.90;;;;;;5062513;28;20473;-72
2024/03/30 02:03:03;;;;;;;9.27;7.43;;;10.30;99.90;;;;;;5060122;28;20462;-71
2024/03/30 02:05:32;;;;;;;11.93;7.17;;;10.30;99.90;;;;;;5063615;28;20474;-70
2024/03/30 02:08:02;;;;;;;10.63;7.67;;;10.30;99.90;;;;;;5063082;28;20528;-71
2024/03/30 02:10:28;;;;;;;10.03;7.40;;;10.30;99.90;;;;;;5063350;28;20502;-71
2024/03/30 02:12:54;;;;;;;9.03;6.77;;;10.30;99.90;;;;;;5037788;28;20450;-70
2024/03/30 02:15:20;;;;;;;11.50;6.90;;;10.30;99.90;;;;;;5061995;28;20470;-70
2024/03/30 02:17:46;;;;;;;11.67;8.20;;;10.30;99.90;;;;;;5048076;28;20223;-70
2024/03/30 02:20:12;;;;;;;9.23;6.97;;;10.30;99.90;;;;;;5063644;28;20215;-70
2024/03/30 02:22:37;;;;;;;9.93;7.00;;;10.30;99.90;;;;;;5079807;28;20462;-71
2024/03/30 02:25:03;;;;;;;9.23;7.27;;;10.30;99.90;;;;;;5047289;28;20235;-70
2024/03/30 02:27:33;;;;;;;8.87;6.93;;;10.30;99.90;;;;;;5062859;28;20215;-71
2024/03/30 02:30:01;;;;;;;8.67;7.10;;;10.30;99.90;;;;;;5046303;28;20214;-69
2024/03/30 02:32:28;;;;;;;13.13;9.10;;;10.30;99.90;;;;;;5064677;28;20457;-71
2024/03/30 02:34:54;;;;;;;9.10;7.10;;;10.30;99.90;;;;;;5054059;28;20867;-69
2024/03/30 02:37:20;;;;;;;12.40;7.43;;;10.30;99.90;;;;;;5062072;28;20508;-71
2024/03/30 02:39:45;;;;;;;11.50;8.10;;;10.30;99.90;;;;;;5063240;28;20536;-71
2024/03/30 02:42:11;;;;;;;8.30;6.60;;;10.30;99.90;;;;;;5061630;28;20218;-71
2024/03/30 02:44:37;;;;;;;12.83;7.80;;;10.20;99.90;;;;;;5062021;28;20269;-71
2024/03/30 02:47:03;;;;;;;8.90;6.43;;;10.30;99.90;;;;;;5062107;28;20211;-70
2024/03/30 02:49:29;;;;;;;10.87;6.80;;;10.30;99.90;;;;;;5043097;28;20243;-71
2024/03/30 02:51:55;;;;;;;11.80;8.27;;;10.30;99.90;;;;;;5062932;28;20226;-70
2024/03/30 02:54:20;;;;;;;9.50;7.13;;;10.30;99.90;;;;;;5063745;28;20454;-71
2024/03/30 02:56:46;;;;;;;10.83;7.30;;;10.30;99.90;;;;;;5062807;28;20218;-71
2024/03/30 02:59:11;;;;;;;9.27;6.87;;;10.20;99.90;;;;;;5044809;28;20203;-71
2024/03/30 03:01:37;;;;;;;9.50;6.80;;;10.20;99.90;;;;;;5058365;28;20261;-71
2024/03/30 03:04:03;;;;;;;8.20;6.20;;;10.20;99.90;;;;;;5063491;28;20218;-70
2024/03/30 03:06:30;;;;;;;9.23;6.60;;;10.20;99.90;;;;;;5045027;28;20455;-71
2024/03/30 03:08:55;;;;;;;10.10;6.20;;;10.20;99.90;;;;;;5044185;28;20438;-70
2024/03/30 03:11:21;;;;;;;9.77;6.50;;;10.20;99.90;;;;;;5063401;28;20962;-71
2024/03/30 03:13:47;;;;;;;11.47;6.63;;;10.20;99.90;;;;;;5064415;28;20247;-71
2024/03/30 03:16:12;;;;;;;7.03;5.27;;;10.20;99.90;;;;;;5062851;28;20215;-71
2024/03/30 03:18:39;;;;;;;9.97;6.53;;;10.10;99.90;;;;;;5062177;28;20215;-71
2024/03/30 03:21:05;;;;;;;9.00;6.70;;;10.10;99.90;;;;;;5064336;28;20211;-70
2024/03/30 03:23:32;;;;;;;9.40;6.50;;;10.00;99.90;;;;;;5062637;28;20461;-71
2024/03/30 03:25:58;;;;;;;9.60;6.73;;;10.10;99.90;;;;;;5052355;28;20830;-71
2024/03/30 03:28:24;;;;;;;11.80;7.77;;;10.00;99.90;;;;;;5064174;28;20524;-70
2024/03/30 03:30:49;;;;;;;10.03;6.50;;;10.00;99.90;;;;;;5065053;28;20532;-71
2024/03/30 03:33:15;;;;;;;7.47;5.80;;;10.00;99.90;;;;;;5066922;28;20218;-69
2024/03/30 03:35:41;;;;;;;8.90;6.70;;;10.00;99.90;;;;;;5047113;28;20219;-72
2024/03/30 03:38:08;;;;;;;7.33;5.97;;;10.00;99.90;;;;;;5061315;28;20211;-72
2024/03/30 03:40:34;;;;;;;13.43;6.10;;;10.00;99.90;;;;;;5060590;28;20721;-69
2024/03/30 03:43:00;;;;;;;8.70;6.37;;;10.00;99.90;;;;;;5044346;28;20455;-69
2024/03/30 03:45:25;;;;;;;7.90;6.07;;;9.90;99.90;;;;;;5046821;28;20223;-71
2024/03/30 03:47:51;;;;;;;8.37;5.90;;;9.90;99.90;;;;;;5062122;28;20215;-71
2024/03/30 03:50:17;;;;;;;7.57;5.87;;;9.90;99.90;;;;;;5065807;28;20268;-71
2024/03/30 03:52:43;;;;;;;7.43;5.80;;;9.90;99.90;;;;;;5049474;28;20223;-70
2024/03/30 03:55:08;;;;;;;7.83;5.77;;;9.90;99.90;;;;;;5065225;28;20254;-72
2024/03/30 03:57:34;;;;;;;8.60;6.20;;;9.90;99.90;;;;;;5047898;28;20500;-72
2024/03/30 04:00:00;;;;;;;7.40;5.97;;;9.90;99.90;;;;;;5065296;28;20220;-70
2024/03/30 04:02:26;;;;;;;9.93;6.10;;;9.90;99.90;;;;;;5066157;28;20305;-70
2024/03/30 04:04:51;;;;;;;8.23;5.53;;;9.90;99.90;;;;;;5066244;28;20536;-72
2024/03/30 04:07:17;;;;;;;8.60;6.00;;;9.90;99.90;;;;;;5067259;28;20254;-71
2024/03/30 04:09:43;;;;;;;7.97;5.60;;;9.90;99.90;;;;;;5066099;28;20250;-71
2024/03/30 04:12:08;;;;;;;8.90;5.90;;;9.90;99.90;;;;;;5064936;28;20212;-69
2024/03/30 04:14:34;;;;;;;7.07;5.30;;;9.90;99.90;;;;;;5064548;28;20231;-70
2024/03/30 04:17:00;;;;;;;6.00;5.40;;;9.80;99.90;;;;;;5063475;28;20222;-71
2024/03/30 04:19:25;;;;;;;7.97;5.80;;;9.80;99.90;;;;;;5067836;28;20260;-69
2024/03/30 04:21:53;;;;;;;7.83;5.50;;;9.80;99.90;;;;;;5064674;28;20265;-71
2024/03/30 04:24:19;;;;;;;8.40;6.20;;;9.80;99.90;;;;;;5061466;28;20215;-71
2024/03/30 04:26:44;;;;;;;6.27;5.17;;;9.70;99.90;;;;;;5064112;28;20445;-71
2024/03/30 04:29:10;;;;;;;8.53;6.00;;;9.70;99.90;;;;;;5062265;28;20233;-71
2024/03/30 04:31:36;;;;;;;7.33;5.80;;;9.70;99.90;;;;;;5047707;28;20215;-71
2024/03/30 04:34:02;;;;;;;7.20;5.33;;;9.70;99.90;;;;;;5065611;28;20246;-72
2024/03/30 04:36:28;;;;;;;8.60;5.67;;;9.60;99.90;;;;;;5064382;28;20361;-71
2024/03/30 04:38:53;;;;;;;7.93;6.63;;;9.50;99.90;;;;;;5065798;28;20541;-72
2024/03/30 04:41:19;;;;;;;10.93;6.30;;;9.40;99.90;;;;;;5064854;28;20243;-72
2024/03/30 04:43:45;;;;;;;8.10;6.03;;;9.40;99.90;;;;;;5064076;28;20212;-72
2024/03/30 04:46:12;;;;;;;8.30;6.10;;;9.40;99.90;;;;;;5064201;28;20222;-72
2024/03/30 04:48:38;;;;;;;7.67;5.57;;;9.40;99.90;;;;;;5065270;28;20244;-70
2024/03/30 04:51:04;;;;;;;9.70;5.13;;;9.40;99.90;;;;;;5064585;28;21230;-71
2024/03/30 04:53:32;;;;;;;11.23;6.07;;;9.40;99.90;;;;;;5048374;28;20493;-71
2024/03/30 04:56:03;;;;;;;10.23;6.20;;;9.50;99.90;;;;;;5056091;28;20211;-72
2024/03/30 04:58:30;;;;;;;7.23;5.50;;;9.40;99.90;;;;;;5064481;28;20616;-72
2024/03/30 05:01:03;;;;;;;9.60;6.30;;;9.30;99.90;;;;;;5047141;28;20469;-72
2024/03/30 05:03:29;;;;;;;9.43;5.83;;;9.40;99.90;;;;;;5063947;28;20470;-72
2024/03/30 05:05:56;;;;;;;7.93;5.50;;;9.40;99.90;;;;;;5062089;28;20466;-71
2024/03/30 05:08:21;;;;;;;7.43;6.13;;;9.40;99.90;;;;;;5060690;28;20223;-71
2024/03/30 05:10:47;;;;;;;7.07;5.70;;;9.30;99.90;;;;;;5065544;28;20469;-71
2024/03/30 05:13:13;;;;;;;9.20;5.97;;;9.40;99.90;;;;;;5063683;28;20226;-72
2024/03/30 05:15:40;;;;;;;8.10;6.27;;;9.40;99.90;;;;;;5062657;28;20234;-71
2024/03/30 05:18:10;;;;;;;8.90;5.50;;;9.30;99.90;;;;;;5062346;28;20223;-68
2024/03/30 05:20:50;;;;;;;6.17;4.80;;;9.30;99.90;;;;;;5060981;28;20516;-69
2024/03/30 05:23:22;;;;;;;7.53;5.20;;;9.30;99.90;;;;;;5063230;28;20449;-71
2024/03/30 05:25:49;;;;;;;7.20;5.33;;;9.30;99.90;;;;;;5052421;28;20478;-71
2024/03/30 05:28:23;;;;;;;5.27;4.40;;;9.30;99.90;;;;;;5064102;28;20453;-71
2024/03/30 05:30:50;;;;;;;8.13;5.07;;;9.30;99.90;;;;;;5064181;28;20465;-70
2024/03/30 05:33:18;;;;;;;7.87;4.97;;;9.30;99.90;;;;;;5046544;28;20528;-70
2024/03/30 05:35:49;;;;;;;7.13;4.80;;;9.30;99.90;;;;;;5058973;28;20465;-71
2024/03/30 05:38:15;;;;;;;8.50;5.40;;;9.30;99.90;;;;;;5064796;28;20529;-71
2024/03/30 05:40:42;;;;;;;6.87;4.67;;;9.30;99.90;;;;;;5045993;28;20603;-71
2024/03/30 05:43:08;;;;;;;6.00;4.60;;;9.40;99.90;;;;;;5062987;28;21041;-71
2024/03/30 05:45:35;;;;;;;10.30;5.67;;;9.30;99.90;;;;;;5064014;28;20548;-71
2024/03/30 05:48:01;;;;;;;7.20;4.70;;;9.30;99.90;;;;;;5063281;28;20245;-71
2024/03/30 05:50:28;;;;;;;6.50;5.00;;;9.30;99.90;;;;;;5060090;28;20457;-70
2024/03/30 05:52:54;;;;;;;9.60;5.80;;;9.30;99.90;;;;;;5043697;28;20460;-72
2024/03/30 05:55:20;;;;;;;7.37;4.37;;;9.30;99.90;;;;;;5065300;28;20473;-68
2024/03/30 05:57:47;;;;;;;7.97;5.10;;;9.30;99.90;;;;;;5056196;28;20465;-71
2024/03/30 06:00:13;;;;;;;6.27;5.00;;;9.20;99.90;;;;;;5061669;28;20227;-72
2024/03/30 06:02:44;;;;;;;9.47;5.60;;;9.20;99.90;;;;;;5062024;28;20517;-72
2024/03/30 06:05:11;;;;;;;9.40;6.43;;;9.10;99.90;;;;;;5060115;28;20467;-72
2024/03/30 06:07:38;;;;;;;7.17;6.00;;;9.10;99.90;;;;;;5064701;28;20992;-72
2024/03/30 06:10:04;;;;;;;14.87;6.50;;;9.20;99.90;;;;;;5061319;28;20502;-71
2024/03/30 06:12:30;;;;;;;11.50;7.10;;;9.20;99.90;;;;;;5066190;28;20521;-72
2024/03/30 06:14:56;;;;;;;11.00;6.30;;;9.20;99.90;;;;;;5065473;28;20541;-71
2024/03/30 06:17:22;;;;;;;7.63;5.70;;;9.20;99.90;;;;;;5061162;28;20219;-72
2024/03/30 06:19:48;;;;;;;8.40;6.03;;;9.20;99.90;;;;;;5061571;28;20223;-71
2024/03/30 06:22:13;;;;;;;8.47;5.67;;;9.20;99.90;;;;;;5064933;28;20699;-71
2024/03/30 06:24:39;;;;;;;7.00;6.27;;;9.30;99.90;;;;;;5063797;28;20696;-71
2024/03/30 06:27:06;;;;;;;7.27;6.00;;;9.30;99.90;;;;;;5070763;28;20291;-71
2024/03/30 06:29:32;;;;;;;8.43;5.97;;;9.30;99.90;;;;;;5063946;28;20226;-70
2024/03/30 06:31:58;;;;;;;6.27;5.63;;;9.30;99.90;;;;;;5041830;28;20499;-70
2024/03/30 06:34:24;;;;;;;10.77;5.60;;;9.30;99.90;;;;;;5062275;28;20542;-70
2024/03/30 06:36:50;;;;;;;8.83;5.87;;;9.30;99.90;;;;;;5043131;28;20298;-71
2024/03/30 06:39:16;;;;;;;7.50;6.03;;;9.30;99.90;;;;;;5063007;28;20454;-71
2024/03/30 06:44:26;;;;;;;4.83;4.30;;;9.30;99.90;;;;;;5065013;28;20218;-70
2024/03/30 06:46:51;;;;;;;8.70;5.03;;;9.30;99.90;;;;;;5057078;28;20505;-70
2024/03/30 06:49:17;;;;;;;7.17;5.87;;;9.30;99.90;;;;;;5064873;28;20254;-71
2024/03/30 06:51:42;;;;;;;8.67;5.43;;;9.30;99.90;;;;;;5062792;28;20215;-71
2024/03/30 06:54:08;;;;;;;8.57;5.80;;;9.30;99.90;;;;;;5063170;28;20689;-71
2024/03/30 06:56:34;;;;;;;7.10;5.47;;;9.40;99.90;;;;;;5046321;28;20230;-70
2024/03/30 06:58:59;;;;;;;8.53;6.27;;;9.40;99.90;;;;;;5062456;28;20215;-71
2024/03/30 07:01:27;;;;;;;8.67;6.07;;;9.40;99.90;;;;;;5040134;28;20223;-71
2024/03/30 07:03:53;;;;;;;10.30;6.90;;;9.40;99.90;;;;;;5060798;28;20239;-70
2024/03/30 07:06:19;;;;;;;10.73;7.57;;;9.40;99.90;;;;;;5063387;28;20456;-71
2024/03/30 07:08:45;;;;;;;8.17;5.83;;;9.40;99.90;;;;;;5063067;28;20540;-70
2024/03/30 07:11:10;;;;;;;7.50;5.60;;;9.40;99.90;;;;;;5062793;28;20219;-70
2024/03/30 07:13:36;;;;;;;6.83;5.87;;;9.40;99.90;;;;;;5061573;28;20227;-70
2024/03/30 07:16:02;;;;;;;6.67;5.73;;;9.40;99.90;;;;;;5059352;28;20308;-70
2024/03/30 07:18:27;;;;;;;10.07;6.10;;;9.50;99.90;;;;;;5057358;28;20299;-71
2024/03/30 07:20:53;;;;;;;7.80;6.33;;;9.40;99.90;;;;;;5064113;28;20648;-70
2024/03/30 07:23:20;;;;;;;8.43;7.20;;;9.40;99.90;;;;;;5066337;28;20268;-71
2024/03/30 07:25:46;;;;;;;8.03;6.43;;;9.50;99.90;;;;;;5063703;28;20211;-70
2024/03/30 07:28:12;;;;;;;9.83;6.40;;;9.50;99.90;;;;;;5059696;28;21135;-70
2024/03/30 07:30:39;;;;;;;7.80;5.90;;;9.50;99.90;;;;;;5061167;28;20469;-70
2024/03/30 07:33:05;;;;;;;12.67;7.03;;;9.50;99.90;;;;;;5035770;28;20310;-71
2024/03/30 07:35:32;;;;;;;10.00;5.93;;;9.50;99.90;;;;;;5059750;28;20466;-70
2024/03/30 07:38:02;;;;;;;8.20;5.67;;;9.50;99.90;;;;;;5053493;28;20499;-70
2024/03/30 07:40:28;;;;;;;8.60;5.80;;;9.50;99.90;;;;;;5043838;28;20464;-71
2024/03/30 07:42:54;;;;;;;8.10;5.33;;;9.60;99.90;;;;;;5059837;28;20492;-71
2024/03/30 07:45:19;;;;;;;8.57;6.10;;;9.60;99.90;;;;;;5054330;28;20274;-71
2024/03/30 07:47:45;;;;;;;8.53;6.20;;;9.70;99.90;;;;;;5058959;28;20223;-69
2024/03/30 07:50:11;;;;;;;7.87;6.43;;;9.70;99.90;;;;;;5041257;28;20215;-70
2024/03/30 07:52:38;;;;;;;9.87;5.93;;;9.60;99.90;;;;;;5053973;28;20211;-70
2024/03/30 07:55:05;;;;;;;9.23;5.87;;;9.60;99.90;;;;;;5038165;28;21091;-71
2024/03/30 07:57:32;;;;;;;9.00;6.67;;;9.70;99.90;;;;;;5060297;28;20461;-70
2024/03/30 07:59:58;;;;;;;7.77;4.53;;;9.70;99.90;;;;;;5067886;28;20456;-70
2024/03/30 08:02:23;;;;;;;8.20;5.43;;;9.70;99.90;;;;;;5063847;28;20453;-69
2024/03/30 08:04:50;;;;;;;7.20;5.27;;;9.80;99.90;;;;;;5058993;28;20492;-70
2024/03/30 08:07:15;;;;;;;9.03;5.33;;;9.80;99.90;;;;;;5063081;28;20226;-71
2024/03/30 08:09:41;;;;;;;5.90;4.50;;;9.70;99.90;;;;;;5041029;28;20521;-71
2024/03/30 08:12:07;;;;;;;7.17;4.90;;;9.80;99.90;;;;;;5054893;28;20297;-70
2024/03/30 08:14:32;;;;;;;6.07;4.60;;;9.80;99.90;;;;;;5059617;28;20322;-70
2024/03/30 08:16:58;;;;;;;10.07;4.37;;;9.80;99.90;;;;;;5037297;28;20254;-71
2024/03/30 08:19:24;;;;;;;7.57;4.23;;;9.80;99.90;;;;;;5059244;28;20214;-71
2024/03/30 08:21:49;;;;;;;7.97;5.20;;;9.80;99.90;;;;;;5056530;28;20226;-71
2024/03/30 08:24:15;;;;;;;5.87;4.53;;;9.90;99.90;;;;;;5058248;28;20689;-71
2024/03/30 08:26:41;;;;;;;7.57;5.27;;;9.90;99.90;;;;;;5062116;28;20223;-70
2024/03/30 08:29:07;;;;;;;6.60;4.43;;;9.90;99.90;;;;;;5057216;28;20219;-71
2024/03/30 08:31:32;;;;;;;6.20;4.43;;;9.90;99.90;;;;;;5058659;28;20725;-71
2024/03/30 08:33:58;;;;;;;10.23;5.50;;;9.90;99.90;;;;;;5053103;28;20453;-71
2024/03/30 08:36:24;;;;;;;5.87;4.30;;;9.90;99.90;;;;;;5057582;28;20223;-71
2024/03/30 08:38:50;;;;;;;6.10;4.47;;;9.90;99.90;;;;;;5056484;28;20234;-71
2024/03/30 08:41:16;;;;;;;6.60;4.40;;;10.00;99.90;;;;;;5058178;28;20835;-71
2024/03/30 08:43:41;;;;;;;9.13;5.30;;;10.00;99.90;;;;;;5058454;28;20310;-71
2024/03/30 08:46:07;;;;;;;7.90;5.13;;;10.00;99.90;;;;;;5049836;28;20984;-71
2024/03/30 08:48:36;;;;;;;8.93;5.67;;;10.10;99.90;;;;;;5054608;28;20223;-72
2024/03/30 08:51:02;;;;;;;8.63;5.90;;;10.10;99.90;;;;;;5050755;28;20222;-70
2024/03/30 08:53:28;;;;;;;10.03;5.40;;;10.20;99.90;;;;;;5058342;28;21021;-71
2024/03/30 08:55:59;;;;;;;11.73;5.57;;;10.20;99.90;;;;;;5057972;28;20473;-69
2024/03/30 08:58:25;;;;;;;22.10;5.80;;;10.20;99.90;;;;;;5055929;28;20491;-69
2024/03/30 09:00:51;;;;;;;8.50;5.30;;;10.20;99.90;;;;;;5058981;28;20481;-69
2024/03/30 09:03:17;;;;;;;9.53;5.33;;;10.20;99.90;;;;;;5052140;28;20450;-70
2024/03/30 09:05:46;;;;;;;7.00;5.00;;;10.20;99.90;;;;;;5058970;28;20219;-71
2024/03/30 09:08:16;;;;;;;6.90;4.20;;;10.20;99.90;;;;;;5054331;28;20471;-71
2024/03/30 09:10:44;;;;;;;8.47;5.57;;;10.30;99.90;;;;;;5059349;28;20564;-70
2024/03/30 09:13:10;;;;;;;16.00;5.20;;;10.30;99.90;;;;;;5054261;28;20877;-71
2024/03/30 09:15:35;;;;;;;7.20;5.00;;;10.30;99.90;;;;;;5043320;28;20484;-71
2024/03/30 09:18:02;;;;;;;20.33;4.20;;;10.40;99.90;;;;;;5050752;28;20223;-71
2024/03/30 09:20:28;;;;;;;9.80;4.93;;;10.30;99.90;;;;;;5057492;28;20208;-72
2024/03/30 09:22:55;;;;;;;8.70;4.20;;;10.40;99.90;;;;;;5054665;28;20507;-71
2024/03/30 09:25:20;;;;;;;8.57;4.67;;;10.40;99.90;;;;;;5057565;28;20273;-71
2024/03/30 09:27:46;;;;;;;6.20;3.97;;;10.40;99.90;;;;;;5054703;28;20466;-70
2024/03/30 09:30:12;;;;;;;8.20;3.80;;;10.50;99.90;;;;;;5046159;28;20215;-71
2024/03/30 09:32:39;;;;;;;8.30;4.40;;;10.50;99.90;;;;;;5055248;28;20235;-71
2024/03/30 09:35:08;;;;;;;9.67;3.83;;;10.60;99.90;;;;;;5051085;28;20501;-71
2024/03/30 09:37:35;;;;;;;10.07;4.67;;;10.60;99.90;;;;;;5053501;28;20534;-71
2024/03/30 09:40:01;;;;;;;11.80;4.97;;;10.60;99.90;;;;;;5050365;28;20826;-72
2024/03/30 09:42:36;;;;;;;6.13;4.30;;;10.70;99.90;;;;;;5057734;28;20552;-70
2024/03/30 09:45:02;;;;;;;6.50;4.70;;;10.70;99.90;;;;;;5050243;28;20310;-71
2024/03/30 09:47:30;;;;;;;9.47;4.07;;;10.70;99.90;;;;;;5056443;28;20518;-71
2024/03/30 09:50:01;;;;;;;9.50;4.10;;;10.70;99.90;;;;;;5068445;28;20998;-69
2024/03/30 09:52:29;;;;;;;8.10;3.80;;;10.80;99.90;;;;;;5040177;28;20464;-72
2024/03/30 09:55:08;;;;;;;9.60;4.37;;;11.00;99.90;;;;;;5055876;28;20462;-71
2024/03/30 09:57:35;;;;;;;10.77;4.33;;;11.00;99.90;;;;;;5056709;28;20479;-70
2024/03/30 10:00:03;;;;;;;7.30;3.60;;;11.10;99.90;;;;;;5052510;28;20484;-71
2024/03/30 10:02:38;;;;;;;11.63;4.33;;;11.10;99.90;;;;;;5054759;28;20493;-72
2024/03/30 10:05:07;;;;;;;3.83;3.20;;;11.20;99.90;;;;;;5053088;28;20477;-70
2024/03/30 10:07:42;;;;;;;5.57;4.17;;;11.30;99.90;;;;;;5057949;28;20482;-70
2024/03/30 10:10:11;;;;;;;8.27;3.37;;;11.30;99.90;;;;;;5051791;28;20618;-71
2024/03/30 10:12:50;;;;;;;7.80;3.67;;;11.30;99.90;;;;;;5057095;28;20465;-72
2024/03/30 10:15:23;;;;;;;6.20;3.50;;;11.40;99.90;;;;;;5051901;28;20469;-69
2024/03/30 10:17:48;;;;;;;5.90;2.83;;;11.40;99.90;;;;;;5057289;28;20816;-71
2024/03/30 10:20:14;;;;;;;7.67;3.53;;;11.40;99.90;;;;;;5053075;28;20494;-71
2024/03/30 10:22:41;;;;;;;7.97;3.50;;;11.50;99.90;;;;;;5054290;28;20217;-71
2024/03/30 10:25:07;;;;;;;3.90;2.80;;;11.60;99.90;;;;;;5054570;28;20230;-72
2024/03/30 10:27:33;;;;;;;8.20;4.20;;;11.60;99.90;;;;;;5055173;28;20485;-71
2024/03/30 10:29:59;;;;;;;4.83;3.63;;;11.70;99.90;;;;;;5052129;28;20466;-71
2024/03/30 10:32:26;;;;;;;13.03;6.33;;;11.70;99.90;;;;;;5057426;28;20227;-71
2024/03/30 10:34:52;;;;;;;16.90;8.30;;;12.00;99.90;;;;;;5043355;28;20602;-72
2024/03/30 10:37:17;;;;;;;12.97;8.37;;;12.00;99.90;;;;;;5052135;28;20466;-73
2024/03/30 10:39:45;;;;;;;13.37;8.40;;;12.00;99.90;;;;;;5047038;28;20241;-74
2024/03/30 10:42:12;;;;;;;11.67;7.73;;;12.00;99.90;;;;;;5060440;28;20299;-74
2024/03/30 10:44:38;;;;;;;13.03;8.20;;;12.10;99.90;;;;;;5057911;28;20988;-75
2024/03/30 10:47:04;;;;;;;13.20;7.43;;;12.00;99.90;;;;;;5034638;28;20458;-73
2024/03/30 10:49:30;;;;;;;11.20;7.70;;;12.00;99.90;;;;;;5057935;28;20237;-75
2024/03/30 10:51:59;;;;;;;16.20;7.63;;;12.00;99.90;;;;;;5054506;28;20901;-73
2024/03/30 10:54:24;;;;;;;9.47;6.40;;;12.00;99.90;;;;;;5054650;28;20219;-70
2024/03/30 10:56:51;;;;;;;11.73;6.57;;;12.00;99.90;;;;;;5041161;28;20515;-71
2024/03/30 10:59:18;;;;;;;12.40;7.60;;;12.00;99.90;;;;;;5056097;28;20230;-72
2024/03/30 11:01:48;;;;;;;17.37;9.63;;;12.10;99.90;;;;;;5059607;28;20449;-70
2024/03/30 11:04:18;;;;;;;11.47;7.53;;;12.10;99.90;;;;;;5058127;28;20961;-70
2024/03/30 11:06:45;;;;;;;14.37;7.00;;;12.00;99.90;;;;;;5059349;28;20462;-71
2024/03/30 11:09:17;;;;;;;12.20;7.80;;;12.10;99.90;;;;;;5037261;28;20457;-72
2024/03/30 11:11:46;;;;;;;10.17;6.60;;;12.00;99.90;;;;;;5061439;28;20457;-71
2024/03/30 11:14:12;;;;;;;8.87;6.37;;;12.00;99.90;;;;;;5053909;28;20454;-72
2024/03/30 11:16:42;;;;;;;9.00;6.10;;;12.00;99.90;;;;;;5060369;28;20475;-71
2024/03/30 11:19:16;;;;;;;7.70;6.37;;;12.00;99.90;;;;;;5055574;28;20294;-70
2024/03/30 11:21:57;;;;;;;9.70;6.37;;;12.00;99.90;;;;;;5059530;28;20461;-71
2024/03/30 11:24:22;;;;;;;9.70;5.97;;;12.00;99.90;;;;;;5046584;28;20535;-71
2024/03/30 11:26:55;;;;;;;9.13;6.73;;;12.00;99.90;;;;;;5042993;28;20869;-71
2024/03/30 11:29:32;;;;;;;12.27;7.50;;;12.00;99.90;;;;;;5068055;28;20211;-71
2024/03/30 11:32:18;;;;;;;11.20;6.03;;;12.00;99.90;;;;;;5063945;28;20485;-71
2024/03/30 11:34:53;;;;;;;10.93;7.47;;;12.00;99.90;;;;;;5057409;28;20556;-71
2024/03/30 11:37:29;;;;;;;12.00;7.07;;;12.00;99.90;;;;;;5037228;28;20464;-71
2024/03/30 11:40:04;;;;;;;10.33;6.47;;;12.00;99.90;;;;;;5057907;28;20457;-71
2024/03/30 11:42:55;;;;;;;10.47;5.87;;;12.10;99.90;;;;;;5056579;28;20552;-71
2024/03/30 11:45:25;;;;;;;12.73;6.20;;;12.10;99.90;;;;;;5043755;28;20644;-71
2024/03/30 11:47:53;;;;;;;12.60;6.87;;;12.10;99.90;;;;;;5059008;28;20476;-71
2024/03/30 11:50:19;;;;;;;13.37;6.57;;;12.10;99.90;;;;;;5054964;28;20542;-70
2024/03/30 11:52:49;;;;;;;9.50;6.50;;;12.00;99.90;;;;;;5058985;28;20468;-71
2024/03/30 11:55:26;;;;;;;13.90;7.30;;;12.00;99.90;;;;;;5053964;28;20476;-70
2024/03/30 11:57:53;;;;;;;10.00;6.47;;;12.10;99.90;;;;;;5055557;28;20488;-70
2024/03/30 12:00:20;;;;;;;11.53;6.63;;;12.10;99.90;;;;;;5055980;28;20464;-71
2024/03/30 12:02:47;;;;;;;8.97;5.83;;;12.10;99.90;;;;;;5047836;28;20465;-70
2024/03/30 12:05:23;;;;;;;17.87;8.40;;;12.10;99.90;;;;;;5055141;28;20469;-69
2024/03/30 12:07:53;;;;;;;8.70;5.83;;;12.00;99.90;;;;;;5058068;28;20575;-69
2024/03/30 12:10:18;;;;;;;16.83;6.50;;;12.00;99.90;;;;;;5037020;28;20461;-71
2024/03/30 12:12:44;;;;;;;11.80;5.67;;;12.00;99.90;;;;;;5061028;28;20481;-70
2024/03/30 12:15:14;;;;;;;9.07;5.97;;;12.10;99.90;;;;;;5036971;28;20350;-71
2024/03/30 12:17:40;;;;;;;8.60;5.20;;;12.10;99.90;;;;;;5041916;28;20635;-70
2024/03/30 12:20:08;;;;;;;10.80;5.23;;;12.10;99.90;;;;;;5052726;28;20457;-69
2024/03/30 12:22:34;;;;;;;12.47;5.70;;;12.10;99.90;;;;;;5057156;28;20475;-69
2024/03/30 12:25:00;;;;;;;7.00;4.90;;;12.10;99.90;;;;;;5052757;28;20457;-71
2024/03/30 12:27:29;;;;;;;11.87;5.63;;;12.10;99.90;;;;;;5057900;28;20220;-69
2024/03/30 12:29:55;;;;;;;11.90;5.03;;;12.10;99.90;;;;;;5059750;28;20463;-71
2024/03/30 12:32:20;;;;;;;8.17;5.10;;;12.10;99.90;;;;;;5050491;28;20455;-71
2024/03/30 12:34:47;;;;;;;7.50;4.63;;;12.10;99.90;;;;;;5056152;28;20276;-72
2024/03/30 12:37:15;;;;;;;11.13;4.60;;;12.20;99.90;;;;;;5053479;28;20231;-71
2024/03/30 12:39:40;;;;;;;18.20;5.73;;;12.20;99.90;;;;;;5058573;28;20595;-72
2024/03/30 12:42:07;;;;;;;9.20;4.40;;;12.20;99.90;;;;;;5053604;28;20544;-71
2024/03/30 12:44:33;;;;;;;7.80;4.90;;;12.20;99.90;;;;;;5058178;28;20226;-72
2024/03/30 12:46:59;;;;;;;10.73;5.20;;;12.20;99.90;;;;;;5055676;28;20457;-71
2024/03/30 12:49:32;;;;;;;8.87;4.40;;;12.20;99.90;;;;;;5061421;28;20286;-70